sensor_id;sensor_type;location;lat;lon;timestamp;P1;durP1;ratioP1;P2;durP2;ratioP2
8831;SDS011;4452;50.756;4.472;2022-10-31T00:00:00;49.75;;;21.67;;
8831;SDS011;4452;50.756;4.472;2022-10-31T00:02:26;45.03;;;20.85;;
8831;SDS011;4452;50.756;4.472;2022-10-31T00:04:51;38.40;;;19.55;;
8831;SDS011;4452;50.756;4.472;2022-10-31T00:07:17;38.55;;;19.58;;
8831;SDS011;4452;50.756;4.472;2022-10-31T00:09:43;39.03;;;18.70;;
8831;SDS011;4452;50.756;4.472;2022-10-31T00:12:08;39.08;;;18.85;;
8831;SDS011;4452;50.756;4.472;2022-10-31T00:14:34;45.83;;;20.17;;
8831;SDS011;4452;50.756;4.472;2022-10-31T00:16:59;37.85;;;19.98;;
8831;SDS011;4452;50.756;4.472;2022-10-31T00:19:25;47.88;;;20.17;;
8831;SDS011;4452;50.756;4.472;2022-10-31T00:21:51;40.60;;;20.85;;
8831;SDS011;4452;50.756;4.472;2022-10-31T00:24:17;39.90;;;20.77;;
8831;SDS011;4452;50.756;4.472;2022-10-31T00:26:43;49.78;;;20.88;;
8831;SDS011;4452;50.756;4.472;2022-10-31T00:29:08;53.67;;;21.70;;
8831;SDS011;4452;50.756;4.472;2022-10-31T00:31:35;52.05;;;21.23;;
8831;SDS011;4452;50.756;4.472;2022-10-31T00:34:00;47.33;;;21.45;;
8831;SDS011;4452;50.756;4.472;2022-10-31T00:36:28;40.60;;;20.70;;
8831;SDS011;4452;50.756;4.472;2022-10-31T00:38:53;51.75;;;20.73;;
8831;SDS011;4452;50.756;4.472;2022-10-31T00:41:19;44.47;;;21.15;;
8831;SDS011;4452;50.756;4.472;2022-10-31T00:43:45;44.05;;;20.90;;
8831;SDS011;4452;50.756;4.472;2022-10-31T00:46:11;55.13;;;21.40;;
8831;SDS011;4452;50.756;4.472;2022-10-31T00:48:37;49.45;;;21.48;;
8831;SDS011;4452;50.756;4.472;2022-10-31T00:51:03;54.80;;;22.20;;
8831;SDS011;4452;50.756;4.472;2022-10-31T00:53:29;52.70;;;22.63;;
8831;SDS011;4452;50.756;4.472;2022-10-31T00:55:55;61.10;;;22.63;;
8831;SDS011;4452;50.756;4.472;2022-10-31T00:58:20;47.63;;;22.83;;
8831;SDS011;4452;50.756;4.472;2022-10-31T01:00:47;56.13;;;23.00;;
8831;SDS011;4452;50.756;4.472;2022-10-31T01:03:23;49.88;;;22.52;;
8831;SDS011;4452;50.756;4.472;2022-10-31T01:08:28;53.50;;;22.77;;
8831;SDS011;4452;50.756;4.472;2022-10-31T01:11:01;55.42;;;22.75;;
8831;SDS011;4452;50.756;4.472;2022-10-31T01:13:38;56.15;;;23.48;;
8831;SDS011;4452;50.756;4.472;2022-10-31T01:16:04;52.70;;;23.10;;
8831;SDS011;4452;50.756;4.472;2022-10-31T01:18:31;60.25;;;23.90;;
8831;SDS011;4452;50.756;4.472;2022-10-31T01:20:58;52.33;;;23.83;;
8831;SDS011;4452;50.756;4.472;2022-10-31T01:23:35;54.88;;;23.25;;
8831;SDS011;4452;50.756;4.472;2022-10-31T01:26:12;49.55;;;21.48;;
8831;SDS011;4452;50.756;4.472;2022-10-31T01:28:38;52.45;;;23.23;;
8831;SDS011;4452;50.756;4.472;2022-10-31T01:31:09;53.22;;;23.83;;
8831;SDS011;4452;50.756;4.472;2022-10-31T01:33:35;52.22;;;22.95;;
8831;SDS011;4452;50.756;4.472;2022-10-31T01:36:01;51.17;;;22.58;;
8831;SDS011;4452;50.756;4.472;2022-10-31T01:38:44;53.37;;;23.10;;
8831;SDS011;4452;50.756;4.472;2022-10-31T01:41:11;48.22;;;22.13;;
8831;SDS011;4452;50.756;4.472;2022-10-31T01:43:44;49.00;;;21.83;;
8831;SDS011;4452;50.756;4.472;2022-10-31T01:46:11;54.90;;;22.63;;
8831;SDS011;4452;50.756;4.472;2022-10-31T01:48:37;60.80;;;24.02;;
8831;SDS011;4452;50.756;4.472;2022-10-31T01:51:05;50.67;;;22.25;;
8831;SDS011;4452;50.756;4.472;2022-10-31T01:53:32;53.22;;;23.50;;
8831;SDS011;4452;50.756;4.472;2022-10-31T01:55:58;50.88;;;21.20;;
8831;SDS011;4452;50.756;4.472;2022-10-31T01:58:25;53.83;;;22.58;;
8831;SDS011;4452;50.756;4.472;2022-10-31T02:00:55;53.72;;;23.45;;
8831;SDS011;4452;50.756;4.472;2022-10-31T02:03:24;55.70;;;23.17;;
8831;SDS011;4452;50.756;4.472;2022-10-31T02:05:51;49.45;;;22.25;;
8831;SDS011;4452;50.756;4.472;2022-10-31T02:08:32;45.53;;;22.38;;
8831;SDS011;4452;50.756;4.472;2022-10-31T02:11:00;55.40;;;23.02;;
8831;SDS011;4452;50.756;4.472;2022-10-31T02:13:27;47.75;;;21.52;;
8831;SDS011;4452;50.756;4.472;2022-10-31T02:15:55;48.25;;;21.58;;
8831;SDS011;4452;50.756;4.472;2022-10-31T02:18:24;45.35;;;20.63;;
8831;SDS011;4452;50.756;4.472;2022-10-31T02:26:57;53.80;;;21.02;;
8831;SDS011;4452;50.756;4.472;2022-10-31T02:35:13;51.08;;;21.23;;
8831;SDS011;4452;50.756;4.472;2022-10-31T02:43:19;58.85;;;22.35;;
8831;SDS011;4452;50.756;4.472;2022-10-31T02:48:33;63.15;;;23.02;;
8831;SDS011;4452;50.756;4.472;2022-10-31T02:51:04;60.75;;;22.02;;
8831;SDS011;4452;50.756;4.472;2022-10-31T02:53:34;56.60;;;22.65;;
8831;SDS011;4452;50.756;4.472;2022-10-31T02:56:14;54.33;;;21.45;;
8831;SDS011;4452;50.756;4.472;2022-10-31T02:58:53;54.25;;;20.77;;
8831;SDS011;4452;50.756;4.472;2022-10-31T03:04:18;51.72;;;21.67;;
8831;SDS011;4452;50.756;4.472;2022-10-31T03:07:00;58.90;;;22.67;;
8831;SDS011;4452;50.756;4.472;2022-10-31T03:20:30;52.28;;;21.65;;
8831;SDS011;4452;50.756;4.472;2022-10-31T03:23:04;57.72;;;22.08;;
8831;SDS011;4452;50.756;4.472;2022-10-31T03:25:36;58.13;;;22.65;;
8831;SDS011;4452;50.756;4.472;2022-10-31T03:28:04;53.42;;;21.45;;
8831;SDS011;4452;50.756;4.472;2022-10-31T03:30:32;63.13;;;21.88;;
8831;SDS011;4452;50.756;4.472;2022-10-31T03:33:02;66.18;;;22.48;;
8831;SDS011;4452;50.756;4.472;2022-10-31T03:35:30;66.00;;;24.00;;
8831;SDS011;4452;50.756;4.472;2022-10-31T03:37:57;60.42;;;23.85;;
8831;SDS011;4452;50.756;4.472;2022-10-31T03:40:25;57.90;;;22.80;;
8831;SDS011;4452;50.756;4.472;2022-10-31T03:43:00;53.08;;;21.40;;
8831;SDS011;4452;50.756;4.472;2022-10-31T03:45:30;56.80;;;21.65;;
8831;SDS011;4452;50.756;4.472;2022-10-31T03:47:57;51.08;;;20.92;;
8831;SDS011;4452;50.756;4.472;2022-10-31T03:50:25;54.97;;;21.83;;
8831;SDS011;4452;50.756;4.472;2022-10-31T03:53:09;52.05;;;22.00;;
8831;SDS011;4452;50.756;4.472;2022-10-31T03:55:42;56.65;;;23.67;;
8831;SDS011;4452;50.756;4.472;2022-10-31T03:58:27;62.88;;;24.08;;
8831;SDS011;4452;50.756;4.472;2022-10-31T04:01:04;70.47;;;26.40;;
8831;SDS011;4452;50.756;4.472;2022-10-31T04:03:33;82.03;;;26.98;;
8831;SDS011;4452;50.756;4.472;2022-10-31T04:06:03;65.72;;;24.95;;
8831;SDS011;4452;50.756;4.472;2022-10-31T04:08:40;65.25;;;23.40;;
8831;SDS011;4452;50.756;4.472;2022-10-31T04:11:16;69.65;;;25.05;;
8831;SDS011;4452;50.756;4.472;2022-10-31T04:13:46;77.30;;;25.70;;
8831;SDS011;4452;50.756;4.472;2022-10-31T04:16:14;80.07;;;28.40;;
8831;SDS011;4452;50.756;4.472;2022-10-31T04:18:41;86.10;;;29.33;;
8831;SDS011;4452;50.756;4.472;2022-10-31T04:21:07;73.00;;;25.65;;
8831;SDS011;4452;50.756;4.472;2022-10-31T04:23:34;118.40;;;26.08;;
8831;SDS011;4452;50.756;4.472;2022-10-31T04:26:01;70.45;;;23.13;;
8831;SDS011;4452;50.756;4.472;2022-10-31T04:28:27;67.40;;;23.10;;
8831;SDS011;4452;50.756;4.472;2022-10-31T04:30:52;63.15;;;23.00;;
8831;SDS011;4452;50.756;4.472;2022-10-31T04:33:19;65.53;;;22.73;;
8831;SDS011;4452;50.756;4.472;2022-10-31T04:35:45;61.78;;;23.48;;
8831;SDS011;4452;50.756;4.472;2022-10-31T04:38:10;64.43;;;23.08;;
8831;SDS011;4452;50.756;4.472;2022-10-31T04:40:36;79.82;;;25.50;;
8831;SDS011;4452;50.756;4.472;2022-10-31T04:43:02;59.70;;;23.40;;
8831;SDS011;4452;50.756;4.472;2022-10-31T04:45:27;61.75;;;23.65;;
8831;SDS011;4452;50.756;4.472;2022-10-31T04:47:53;70.15;;;25.35;;
8831;SDS011;4452;50.756;4.472;2022-10-31T04:50:19;74.90;;;25.95;;
8831;SDS011;4452;50.756;4.472;2022-10-31T04:52:45;79.97;;;25.77;;
8831;SDS011;4452;50.756;4.472;2022-10-31T04:55:11;66.30;;;24.77;;
8831;SDS011;4452;50.756;4.472;2022-10-31T04:57:41;71.82;;;24.75;;
8831;SDS011;4452;50.756;4.472;2022-10-31T05:00:08;56.20;;;22.98;;
8831;SDS011;4452;50.756;4.472;2022-10-31T05:02:41;62.53;;;21.70;;
8831;SDS011;4452;50.756;4.472;2022-10-31T05:05:15;59.88;;;21.98;;
8831;SDS011;4452;50.756;4.472;2022-10-31T05:07:43;58.60;;;22.98;;
8831;SDS011;4452;50.756;4.472;2022-10-31T05:10:12;59.00;;;23.02;;
8831;SDS011;4452;50.756;4.472;2022-10-31T05:12:46;78.95;;;26.63;;
8831;SDS011;4452;50.756;4.472;2022-10-31T05:15:13;73.50;;;26.27;;
8831;SDS011;4452;50.756;4.472;2022-10-31T05:17:39;77.43;;;27.65;;
8831;SDS011;4452;50.756;4.472;2022-10-31T05:20:05;73.93;;;27.52;;
8831;SDS011;4452;50.756;4.472;2022-10-31T05:22:31;80.45;;;28.45;;
8831;SDS011;4452;50.756;4.472;2022-10-31T05:24:57;79.93;;;29.30;;
8831;SDS011;4452;50.756;4.472;2022-10-31T05:27:23;87.60;;;31.25;;
8831;SDS011;4452;50.756;4.472;2022-10-31T05:29:48;84.78;;;31.25;;
8831;SDS011;4452;50.756;4.472;2022-10-31T05:32:14;85.57;;;29.77;;
8831;SDS011;4452;50.756;4.472;2022-10-31T05:34:40;82.55;;;29.90;;
8831;SDS011;4452;50.756;4.472;2022-10-31T05:37:06;80.82;;;29.27;;
8831;SDS011;4452;50.756;4.472;2022-10-31T05:39:31;81.22;;;29.35;;
8831;SDS011;4452;50.756;4.472;2022-10-31T05:41:57;87.15;;;30.88;;
8831;SDS011;4452;50.756;4.472;2022-10-31T05:44:22;85.68;;;30.77;;
8831;SDS011;4452;50.756;4.472;2022-10-31T05:46:48;98.88;;;32.30;;
8831;SDS011;4452;50.756;4.472;2022-10-31T05:49:14;101.28;;;32.80;;
8831;SDS011;4452;50.756;4.472;2022-10-31T05:51:40;96.47;;;32.65;;
8831;SDS011;4452;50.756;4.472;2022-10-31T05:54:05;90.22;;;31.17;;
8831;SDS011;4452;50.756;4.472;2022-10-31T05:56:31;87.75;;;28.85;;
8831;SDS011;4452;50.756;4.472;2022-10-31T05:58:57;86.53;;;31.85;;
8831;SDS011;4452;50.756;4.472;2022-10-31T06:01:22;85.40;;;30.63;;
8831;SDS011;4452;50.756;4.472;2022-10-31T06:03:48;93.30;;;32.67;;
8831;SDS011;4452;50.756;4.472;2022-10-31T06:06:13;85.20;;;31.45;;
8831;SDS011;4452;50.756;4.472;2022-10-31T06:08:39;94.30;;;31.48;;
8831;SDS011;4452;50.756;4.472;2022-10-31T06:11:05;87.13;;;31.25;;
8831;SDS011;4452;50.756;4.472;2022-10-31T06:13:31;93.10;;;31.85;;
8831;SDS011;4452;50.756;4.472;2022-10-31T06:15:56;82.45;;;29.58;;
8831;SDS011;4452;50.756;4.472;2022-10-31T06:18:22;84.82;;;29.95;;
8831;SDS011;4452;50.756;4.472;2022-10-31T06:20:48;87.15;;;29.38;;
8831;SDS011;4452;50.756;4.472;2022-10-31T06:23:13;84.90;;;30.52;;
8831;SDS011;4452;50.756;4.472;2022-10-31T06:25:39;85.22;;;29.92;;
8831;SDS011;4452;50.756;4.472;2022-10-31T06:28:05;97.63;;;33.63;;
8831;SDS011;4452;50.756;4.472;2022-10-31T06:30:30;95.72;;;32.85;;
8831;SDS011;4452;50.756;4.472;2022-10-31T06:33:03;83.75;;;30.65;;
8831;SDS011;4452;50.756;4.472;2022-10-31T06:35:29;85.25;;;31.27;;
8831;SDS011;4452;50.756;4.472;2022-10-31T06:37:56;99.15;;;33.42;;
8831;SDS011;4452;50.756;4.472;2022-10-31T06:40:23;94.63;;;31.48;;
8831;SDS011;4452;50.756;4.472;2022-10-31T06:42:56;97.75;;;32.88;;
8831;SDS011;4452;50.756;4.472;2022-10-31T06:45:27;94.45;;;32.55;;
8831;SDS011;4452;50.756;4.472;2022-10-31T06:47:53;86.90;;;32.58;;
8831;SDS011;4452;50.756;4.472;2022-10-31T06:50:20;93.10;;;34.17;;
8831;SDS011;4452;50.756;4.472;2022-10-31T06:52:53;101.97;;;33.70;;
8831;SDS011;4452;50.756;4.472;2022-10-31T06:55:20;100.07;;;32.83;;
8831;SDS011;4452;50.756;4.472;2022-10-31T06:57:57;100.32;;;34.50;;
8831;SDS011;4452;50.756;4.472;2022-10-31T07:00:24;99.97;;;34.47;;
8831;SDS011;4452;50.756;4.472;2022-10-31T07:02:58;100.85;;;34.13;;
8831;SDS011;4452;50.756;4.472;2022-10-31T07:05:25;101.43;;;33.08;;
8831;SDS011;4452;50.756;4.472;2022-10-31T07:07:56;95.20;;;33.03;;
8831;SDS011;4452;50.756;4.472;2022-10-31T07:10:23;101.43;;;34.65;;
8831;SDS011;4452;50.756;4.472;2022-10-31T07:12:57;92.85;;;33.28;;
8831;SDS011;4452;50.756;4.472;2022-10-31T07:15:25;95.43;;;32.92;;
8831;SDS011;4452;50.756;4.472;2022-10-31T07:17:52;90.07;;;32.53;;
8831;SDS011;4452;50.756;4.472;2022-10-31T07:20:18;101.25;;;35.92;;
8831;SDS011;4452;50.756;4.472;2022-10-31T07:22:44;102.28;;;34.33;;
8831;SDS011;4452;50.756;4.472;2022-10-31T07:25:10;95.72;;;33.65;;
8831;SDS011;4452;50.756;4.472;2022-10-31T07:27:39;97.88;;;34.10;;
8831;SDS011;4452;50.756;4.472;2022-10-31T07:30:06;102.45;;;34.83;;
8831;SDS011;4452;50.756;4.472;2022-10-31T07:35:15;107.88;;;34.72;;
8831;SDS011;4452;50.756;4.472;2022-10-31T07:37:45;108.80;;;35.00;;
8831;SDS011;4452;50.756;4.472;2022-10-31T07:40:11;104.00;;;35.78;;
8831;SDS011;4452;50.756;4.472;2022-10-31T07:42:37;88.13;;;33.28;;
8831;SDS011;4452;50.756;4.472;2022-10-31T07:45:05;93.72;;;35.40;;
8831;SDS011;4452;50.756;4.472;2022-10-31T07:47:51;94.10;;;35.20;;
8831;SDS011;4452;50.756;4.472;2022-10-31T07:50:28;95.10;;;34.13;;
8831;SDS011;4452;50.756;4.472;2022-10-31T07:53:01;90.15;;;32.95;;
8831;SDS011;4452;50.756;4.472;2022-10-31T07:55:31;97.03;;;32.75;;
8831;SDS011;4452;50.756;4.472;2022-10-31T07:57:58;91.43;;;33.13;;
8831;SDS011;4452;50.756;4.472;2022-10-31T08:00:26;91.78;;;34.13;;
8831;SDS011;4452;50.756;4.472;2022-10-31T08:02:59;98.55;;;34.42;;
8831;SDS011;4452;50.756;4.472;2022-10-31T08:05:26;103.18;;;35.10;;
8831;SDS011;4452;50.756;4.472;2022-10-31T08:07:52;102.35;;;33.03;;
8831;SDS011;4452;50.756;4.472;2022-10-31T08:10:18;89.85;;;33.70;;
8831;SDS011;4452;50.756;4.472;2022-10-31T08:12:43;84.40;;;32.85;;
8831;SDS011;4452;50.756;4.472;2022-10-31T08:15:09;83.82;;;32.97;;
8831;SDS011;4452;50.756;4.472;2022-10-31T08:17:35;90.05;;;31.80;;
8831;SDS011;4452;50.756;4.472;2022-10-31T08:20:02;81.32;;;32.05;;
8831;SDS011;4452;50.756;4.472;2022-10-31T08:22:28;74.95;;;30.80;;
8831;SDS011;4452;50.756;4.472;2022-10-31T08:24:54;78.88;;;31.10;;
8831;SDS011;4452;50.756;4.472;2022-10-31T08:27:20;86.53;;;29.80;;
8831;SDS011;4452;50.756;4.472;2022-10-31T08:29:45;68.03;;;29.27;;
8831;SDS011;4452;50.756;4.472;2022-10-31T08:32:11;83.93;;;30.50;;
8831;SDS011;4452;50.756;4.472;2022-10-31T08:34:38;76.22;;;30.60;;
8831;SDS011;4452;50.756;4.472;2022-10-31T08:37:03;80.95;;;30.98;;
8831;SDS011;4452;50.756;4.472;2022-10-31T08:39:29;79.38;;;30.85;;
8831;SDS011;4452;50.756;4.472;2022-10-31T08:41:55;75.80;;;29.75;;
8831;SDS011;4452;50.756;4.472;2022-10-31T08:44:20;76.47;;;29.63;;
8831;SDS011;4452;50.756;4.472;2022-10-31T08:46:46;74.63;;;29.48;;
8831;SDS011;4452;50.756;4.472;2022-10-31T08:49:12;74.25;;;29.75;;
8831;SDS011;4452;50.756;4.472;2022-10-31T08:51:41;69.32;;;28.40;;
8831;SDS011;4452;50.756;4.472;2022-10-31T08:54:09;58.83;;;26.35;;
8831;SDS011;4452;50.756;4.472;2022-10-31T08:56:38;58.78;;;26.85;;
8831;SDS011;4452;50.756;4.472;2022-10-31T08:59:09;63.67;;;25.98;;
8831;SDS011;4452;50.756;4.472;2022-10-31T09:01:37;63.40;;;26.23;;
8831;SDS011;4452;50.756;4.472;2022-10-31T09:04:03;57.72;;;23.92;;
8831;SDS011;4452;50.756;4.472;2022-10-31T09:06:28;59.90;;;24.65;;
8831;SDS011;4452;50.756;4.472;2022-10-31T09:08:54;56.15;;;24.60;;
8831;SDS011;4452;50.756;4.472;2022-10-31T09:11:20;48.88;;;23.50;;
8831;SDS011;4452;50.756;4.472;2022-10-31T09:13:45;48.45;;;23.13;;
8831;SDS011;4452;50.756;4.472;2022-10-31T09:16:11;56.30;;;23.55;;
8831;SDS011;4452;50.756;4.472;2022-10-31T09:18:37;48.38;;;21.98;;
8831;SDS011;4452;50.756;4.472;2022-10-31T09:21:02;50.58;;;22.75;;
8831;SDS011;4452;50.756;4.472;2022-10-31T09:23:28;54.95;;;22.75;;
8831;SDS011;4452;50.756;4.472;2022-10-31T09:25:54;52.90;;;21.70;;
8831;SDS011;4452;50.756;4.472;2022-10-31T09:28:21;52.00;;;21.90;;
8831;SDS011;4452;50.756;4.472;2022-10-31T09:30:49;58.35;;;22.27;;
8831;SDS011;4452;50.756;4.472;2022-10-31T09:33:16;49.30;;;22.02;;
8831;SDS011;4452;50.756;4.472;2022-10-31T09:35:43;42.40;;;21.85;;
8831;SDS011;4452;50.756;4.472;2022-10-31T09:38:12;45.45;;;21.98;;
8831;SDS011;4452;50.756;4.472;2022-10-31T09:40:41;43.33;;;21.52;;
8831;SDS011;4452;50.756;4.472;2022-10-31T09:43:25;48.60;;;21.02;;
8831;SDS011;4452;50.756;4.472;2022-10-31T09:48:48;44.30;;;19.75;;
8831;SDS011;4452;50.756;4.472;2022-10-31T09:54:00;41.75;;;19.60;;
8831;SDS011;4452;50.756;4.472;2022-10-31T09:56:27;44.47;;;19.35;;
8831;SDS011;4452;50.756;4.472;2022-10-31T09:58:59;42.75;;;18.92;;
8831;SDS011;4452;50.756;4.472;2022-10-31T10:04:11;43.13;;;17.80;;
8831;SDS011;4452;50.756;4.472;2022-10-31T10:07:19;32.47;;;17.25;;
8831;SDS011;4452;50.756;4.472;2022-10-31T10:10:13;29.77;;;16.38;;
8831;SDS011;4452;50.756;4.472;2022-10-31T10:18:16;31.83;;;16.25;;
8831;SDS011;4452;50.756;4.472;2022-10-31T10:26:29;26.75;;;14.00;;
8831;SDS011;4452;50.756;4.472;2022-10-31T10:32:12;23.50;;;12.85;;
8831;SDS011;4452;50.756;4.472;2022-10-31T10:34:46;22.73;;;12.77;;
8831;SDS011;4452;50.756;4.472;2022-10-31T10:37:20;28.83;;;13.32;;
8831;SDS011;4452;50.756;4.472;2022-10-31T10:40:03;25.75;;;13.40;;
8831;SDS011;4452;50.756;4.472;2022-10-31T10:42:36;21.95;;;12.50;;
8831;SDS011;4452;50.756;4.472;2022-10-31T10:45:20;25.27;;;13.82;;
8831;SDS011;4452;50.756;4.472;2022-10-31T10:48:53;23.45;;;13.63;;
8831;SDS011;4452;50.756;4.472;2022-10-31T10:50:53;25.67;;;12.32;;
8831;SDS011;4452;50.756;4.472;2022-10-31T10:56:17;23.55;;;12.75;;
8831;SDS011;4452;50.756;4.472;2022-10-31T10:58:51;24.30;;;12.80;;
8831;SDS011;4452;50.756;4.472;2022-10-31T11:01:30;22.98;;;12.23;;
8831;SDS011;4452;50.756;4.472;2022-10-31T11:03:56;21.38;;;12.20;;
8831;SDS011;4452;50.756;4.472;2022-10-31T11:06:23;32.03;;;12.48;;
8831;SDS011;4452;50.756;4.472;2022-10-31T11:08:51;24.33;;;13.35;;
8831;SDS011;4452;50.756;4.472;2022-10-31T11:13:47;23.85;;;12.02;;
8831;SDS011;4452;50.756;4.472;2022-10-31T11:19:04;25.10;;;12.32;;
8831;SDS011;4452;50.756;4.472;2022-10-31T11:21:51;25.77;;;11.68;;
8831;SDS011;4452;50.756;4.472;2022-10-31T11:24:19;20.38;;;11.95;;
8831;SDS011;4452;50.756;4.472;2022-10-31T11:26:47;19.30;;;10.85;;
8831;SDS011;4452;50.756;4.472;2022-10-31T11:29:15;22.08;;;10.77;;
8831;SDS011;4452;50.756;4.472;2022-10-31T11:31:41;19.17;;;10.55;;
8831;SDS011;4452;50.756;4.472;2022-10-31T11:34:13;16.75;;;10.18;;
8831;SDS011;4452;50.756;4.472;2022-10-31T11:36:44;24.00;;;11.05;;
8831;SDS011;4452;50.756;4.472;2022-10-31T11:39:23;19.23;;;10.23;;
8831;SDS011;4452;50.756;4.472;2022-10-31T11:41:50;19.17;;;9.90;;
8831;SDS011;4452;50.756;4.472;2022-10-31T11:44:18;17.70;;;9.35;;
8831;SDS011;4452;50.756;4.472;2022-10-31T11:46:51;15.50;;;9.40;;
8831;SDS011;4452;50.756;4.472;2022-10-31T11:51:54;29.58;;;10.02;;
8831;SDS011;4452;50.756;4.472;2022-10-31T11:54:23;23.00;;;9.45;;
8831;SDS011;4452;50.756;4.472;2022-10-31T11:56:55;18.98;;;9.45;;
8831;SDS011;4452;50.756;4.472;2022-10-31T11:59:28;17.15;;;9.32;;
8831;SDS011;4452;50.756;4.472;2022-10-31T12:01:57;19.30;;;10.13;;
8831;SDS011;4452;50.756;4.472;2022-10-31T12:06:54;15.85;;;8.07;;
8831;SDS011;4452;50.756;4.472;2022-10-31T12:09:29;22.55;;;8.30;;
8831;SDS011;4452;50.756;4.472;2022-10-31T12:12:10;16.48;;;8.50;;
8831;SDS011;4452;50.756;4.472;2022-10-31T12:21:07;16.70;;;7.88;;
8831;SDS011;4452;50.756;4.472;2022-10-31T12:28:53;14.07;;;7.70;;
8831;SDS011;4452;50.756;4.472;2022-10-31T12:44:53;21.75;;;7.72;;
8831;SDS011;4452;50.756;4.472;2022-10-31T12:58:36;19.75;;;7.78;;
8831;SDS011;4452;50.756;4.472;2022-10-31T13:01:11;15.80;;;7.53;;
8831;SDS011;4452;50.756;4.472;2022-10-31T13:04:02;17.63;;;8.30;;
8831;SDS011;4452;50.756;4.472;2022-10-31T13:06:56;22.80;;;10.15;;
8831;SDS011;4452;50.756;4.472;2022-10-31T13:09:33;23.77;;;11.05;;
8831;SDS011;4452;50.756;4.472;2022-10-31T13:12:08;26.38;;;10.00;;
8831;SDS011;4452;50.756;4.472;2022-10-31T13:14:45;34.00;;;11.18;;
8831;SDS011;4452;50.756;4.472;2022-10-31T13:17:42;31.52;;;10.73;;
8831;SDS011;4452;50.756;4.472;2022-10-31T13:20:13;24.05;;;9.77;;
8831;SDS011;4452;50.756;4.472;2022-10-31T13:22:41;25.10;;;8.02;;
8831;SDS011;4452;50.756;4.472;2022-10-31T13:30:21;18.52;;;7.18;;
8831;SDS011;4452;50.756;4.472;2022-10-31T13:32:51;17.98;;;7.40;;
8831;SDS011;4452;50.756;4.472;2022-10-31T13:41:10;18.08;;;6.90;;
8831;SDS011;4452;50.756;4.472;2022-10-31T13:48:59;22.65;;;6.75;;
8831;SDS011;4452;50.756;4.472;2022-10-31T13:51:29;13.60;;;6.00;;
8831;SDS011;4452;50.756;4.472;2022-10-31T13:54:00;12.60;;;6.05;;
8831;SDS011;4452;50.756;4.472;2022-10-31T13:56:31;21.67;;;6.43;;
8831;SDS011;4452;50.756;4.472;2022-10-31T13:59:00;15.77;;;6.45;;
8831;SDS011;4452;50.756;4.472;2022-10-31T14:01:49;12.35;;;6.25;;
8831;SDS011;4452;50.756;4.472;2022-10-31T14:04:30;21.08;;;5.78;;
8831;SDS011;4452;50.756;4.472;2022-10-31T14:09:55;15.25;;;6.70;;
8831;SDS011;4452;50.756;4.472;2022-10-31T14:12:30;19.80;;;5.97;;
8831;SDS011;4452;50.756;4.472;2022-10-31T14:17:58;15.38;;;6.13;;
8831;SDS011;4452;50.756;4.472;2022-10-31T14:20:41;17.05;;;5.63;;
8831;SDS011;4452;50.756;4.472;2022-10-31T14:31:43;19.95;;;9.00;;
8831;SDS011;4452;50.756;4.472;2022-10-31T14:39:57;19.60;;;6.30;;
8831;SDS011;4452;50.756;4.472;2022-10-31T14:51:22;18.13;;;6.78;;
8831;SDS011;4452;50.756;4.472;2022-10-31T14:53:54;30.67;;;7.40;;
8831;SDS011;4452;50.756;4.472;2022-10-31T14:56:27;15.70;;;7.22;;
8831;SDS011;4452;50.756;4.472;2022-10-31T14:59:08;17.20;;;7.63;;
8831;SDS011;4452;50.756;4.472;2022-10-31T15:01:39;18.27;;;6.72;;
8831;SDS011;4452;50.756;4.472;2022-10-31T15:04:18;20.90;;;7.53;;
8831;SDS011;4452;50.756;4.472;2022-10-31T15:06:54;18.77;;;8.38;;
8831;SDS011;4452;50.756;4.472;2022-10-31T15:09:27;21.40;;;8.32;;
8831;SDS011;4452;50.756;4.472;2022-10-31T15:12:00;18.65;;;8.23;;
8831;SDS011;4452;50.756;4.472;2022-10-31T15:14:48;20.15;;;8.35;;
8831;SDS011;4452;50.756;4.472;2022-10-31T15:17:15;22.35;;;10.70;;
8831;SDS011;4452;50.756;4.472;2022-10-31T15:19:41;23.42;;;9.15;;
8831;SDS011;4452;50.756;4.472;2022-10-31T15:22:10;23.92;;;9.30;;
8831;SDS011;4452;50.756;4.472;2022-10-31T15:24:40;20.80;;;9.93;;
8831;SDS011;4452;50.756;4.472;2022-10-31T15:27:10;27.35;;;8.63;;
8831;SDS011;4452;50.756;4.472;2022-10-31T15:32:23;19.65;;;9.60;;
8831;SDS011;4452;50.756;4.472;2022-10-31T15:34:52;32.53;;;10.05;;
8831;SDS011;4452;50.756;4.472;2022-10-31T15:37:22;22.88;;;9.63;;
8831;SDS011;4452;50.756;4.472;2022-10-31T15:39:51;22.27;;;9.68;;
8831;SDS011;4452;50.756;4.472;2022-10-31T15:47:38;22.40;;;9.88;;
8831;SDS011;4452;50.756;4.472;2022-10-31T15:53:19;23.75;;;9.55;;
8831;SDS011;4452;50.756;4.472;2022-10-31T15:55:58;20.08;;;9.38;;
8831;SDS011;4452;50.756;4.472;2022-10-31T15:58:28;24.05;;;8.98;;
8831;SDS011;4452;50.756;4.472;2022-10-31T16:01:05;23.50;;;10.23;;
8831;SDS011;4452;50.756;4.472;2022-10-31T16:03:43;24.58;;;10.43;;
8831;SDS011;4452;50.756;4.472;2022-10-31T16:06:21;19.52;;;9.55;;
8831;SDS011;4452;50.756;4.472;2022-10-31T16:08:48;28.15;;;10.25;;
8831;SDS011;4452;50.756;4.472;2022-10-31T16:16:25;21.30;;;9.07;;
8831;SDS011;4452;50.756;4.472;2022-10-31T16:18:52;25.90;;;9.38;;
8831;SDS011;4452;50.756;4.472;2022-10-31T16:21:30;25.40;;;9.95;;
8831;SDS011;4452;50.756;4.472;2022-10-31T16:24:02;27.88;;;13.88;;
8831;SDS011;4452;50.756;4.472;2022-10-31T16:26:42;20.85;;;9.57;;
8831;SDS011;4452;50.756;4.472;2022-10-31T16:29:27;17.90;;;9.82;;
8831;SDS011;4452;50.756;4.472;2022-10-31T16:34:58;21.83;;;9.83;;
8831;SDS011;4452;50.756;4.472;2022-10-31T16:37:25;20.65;;;9.00;;
8831;SDS011;4452;50.756;4.472;2022-10-31T16:39:50;18.45;;;8.38;;
8831;SDS011;4452;50.756;4.472;2022-10-31T16:42:16;21.02;;;8.95;;
8831;SDS011;4452;50.756;4.472;2022-10-31T16:44:42;15.32;;;6.90;;
8831;SDS011;4452;50.756;4.472;2022-10-31T16:47:12;17.65;;;7.75;;
8831;SDS011;4452;50.756;4.472;2022-10-31T16:49:41;16.75;;;6.65;;
8831;SDS011;4452;50.756;4.472;2022-10-31T16:52:08;27.42;;;7.40;;
8831;SDS011;4452;50.756;4.472;2022-10-31T16:54:34;17.60;;;7.18;;
8831;SDS011;4452;50.756;4.472;2022-10-31T16:57:00;25.67;;;7.05;;
8831;SDS011;4452;50.756;4.472;2022-10-31T16:59:28;16.52;;;6.57;;
8831;SDS011;4452;50.756;4.472;2022-10-31T17:01:55;17.45;;;7.00;;
8831;SDS011;4452;50.756;4.472;2022-10-31T17:04:21;19.08;;;6.38;;
8831;SDS011;4452;50.756;4.472;2022-10-31T17:06:46;19.98;;;7.28;;
8831;SDS011;4452;50.756;4.472;2022-10-31T17:09:12;16.10;;;7.40;;
8831;SDS011;4452;50.756;4.472;2022-10-31T17:11:39;22.85;;;7.82;;
8831;SDS011;4452;50.756;4.472;2022-10-31T17:14:11;19.75;;;7.68;;
8831;SDS011;4452;50.756;4.472;2022-10-31T17:16:37;22.30;;;7.90;;
8831;SDS011;4452;50.756;4.472;2022-10-31T17:19:03;27.70;;;10.88;;
8831;SDS011;4452;50.756;4.472;2022-10-31T17:21:28;23.17;;;10.90;;
8831;SDS011;4452;50.756;4.472;2022-10-31T17:23:55;21.13;;;8.55;;
8831;SDS011;4452;50.756;4.472;2022-10-31T17:26:20;17.20;;;7.68;;
8831;SDS011;4452;50.756;4.472;2022-10-31T17:28:47;15.23;;;7.32;;
8831;SDS011;4452;50.756;4.472;2022-10-31T17:31:23;21.25;;;7.93;;
8831;SDS011;4452;50.756;4.472;2022-10-31T17:33:55;17.92;;;7.07;;
8831;SDS011;4452;50.756;4.472;2022-10-31T17:36:22;20.23;;;7.72;;
8831;SDS011;4452;50.756;4.472;2022-10-31T17:38:47;21.33;;;7.43;;
8831;SDS011;4452;50.756;4.472;2022-10-31T17:41:13;23.98;;;7.75;;
8831;SDS011;4452;50.756;4.472;2022-10-31T17:44:02;15.90;;;8.55;;
8831;SDS011;4452;50.756;4.472;2022-10-31T17:46:32;17.40;;;7.53;;
8831;SDS011;4452;50.756;4.472;2022-10-31T17:48:58;19.85;;;8.02;;
8831;SDS011;4452;50.756;4.472;2022-10-31T17:51:25;13.82;;;7.75;;
8831;SDS011;4452;50.756;4.472;2022-10-31T17:53:51;16.20;;;7.28;;
8831;SDS011;4452;50.756;4.472;2022-10-31T17:56:16;15.15;;;7.40;;
8831;SDS011;4452;50.756;4.472;2022-10-31T17:58:42;19.25;;;7.85;;
8831;SDS011;4452;50.756;4.472;2022-10-31T18:01:12;20.20;;;8.23;;